createdAt,value
2023-05-12T00:01:53.203Z,3.67
2023-05-12T00:04:40.273Z,6.50
2023-05-12T00:07:25.509Z,3.33
2023-05-12T00:10:11.143Z,5.25
2023-05-12T00:12:56.194Z,4.57
2023-05-12T00:15:41.431Z,3.30
2023-05-12T00:18:28.513Z,5.28
2023-05-12T00:21:13.737Z,3.60
2023-05-12T00:23:58.698Z,4.32
2023-05-12T00:26:43.925Z,4.13
2023-05-12T00:29:29.092Z,4.97
2023-05-12T00:32:14.401Z,7.18
2023-05-12T00:34:59.860Z,4.60
2023-05-12T00:37:45.143Z,5.85
2023-05-12T00:40:30.145Z,3.17
2023-05-12T00:43:14.880Z,6.43
2023-05-12T00:46:02.305Z,3.35
2023-05-12T00:48:48.181Z,11.70
2023-05-12T00:51:33.171Z,2.78
2023-05-12T00:54:18.495Z,4.60
2023-05-12T00:57:03.959Z,5.90
2023-05-12T00:59:49.291Z,7.38
2023-05-12T01:02:35.086Z,8.82
2023-05-12T01:05:20.694Z,7.43
2023-05-12T01:08:06.313Z,5.50
2023-05-12T01:10:52.560Z,9.30
2023-05-12T01:13:39.520Z,5.60
2023-05-12T01:16:32.654Z,4.53
2023-05-12T01:19:49.293Z,6.03
2023-05-12T01:22:35.883Z,6.10
2023-05-12T01:25:23.614Z,5.50
2023-05-12T01:28:09.473Z,4.88
2023-05-12T01:30:54.770Z,8.68
2023-05-12T01:33:40.040Z,8.95
2023-05-12T01:36:25.198Z,5.80
2023-05-12T01:39:10.501Z,10.82
2023-05-12T01:41:56.239Z,15.38
2023-05-12T01:44:41.389Z,10.70
2023-05-12T01:47:26.686Z,8.80
2023-05-12T01:50:11.916Z,10.68
2023-05-12T01:52:57.134Z,9.35
2023-05-12T01:55:42.339Z,9.00
2023-05-12T01:58:27.554Z,16.15
2023-05-12T02:01:12.495Z,9.07
2023-05-12T02:03:58.243Z,10.75
2023-05-12T02:06:43.319Z,17.23
2023-05-12T02:09:28.147Z,30.02
2023-05-12T02:12:13.469Z,30.63
2023-05-12T02:14:58.389Z,39.67
2023-05-12T02:17:43.158Z,35.92
2023-05-12T02:20:29.644Z,38.72
2023-05-12T02:23:14.496Z,36.28
2023-05-12T02:25:59.919Z,31.48
2023-05-12T02:28:44.811Z,36.63
2023-05-12T02:31:29.787Z,28.60
2023-05-12T02:34:15.029Z,28.75
2023-05-12T02:37:00.689Z,26.67
2023-05-12T02:39:45.573Z,27.23
2023-05-12T02:42:35.341Z,28.40
2023-05-12T02:45:20.306Z,26.45
2023-05-12T02:48:05.876Z,24.92
2023-05-12T02:50:50.941Z,20.55
2023-05-12T02:53:36.383Z,20.70
2023-05-12T02:56:22.436Z,21.55
2023-05-12T02:59:07.503Z,25.90
2023-05-12T03:01:52.590Z,28.85
2023-05-12T03:04:38.122Z,24.73
2023-05-12T03:07:23.158Z,25.65
2023-05-12T03:10:09.775Z,25.88
2023-05-12T03:12:54.939Z,28.92
2023-05-12T03:15:40.005Z,25.58
2023-05-12T03:18:24.883Z,23.35
2023-05-12T03:21:09.894Z,27.45
2023-05-12T03:23:55.049Z,28.45
2023-05-12T03:26:41.027Z,30.95
2023-05-12T03:29:26.602Z,32.63
2023-05-12T03:32:11.775Z,29.08
2023-05-12T03:34:56.750Z,31.55
2023-05-12T03:37:41.557Z,36.30
2023-05-12T03:40:26.752Z,31.85
2023-05-12T03:43:11.795Z,37.13
2023-05-12T03:45:57.220Z,39.08
2023-05-12T03:48:42.269Z,36.65
2023-05-12T03:51:28.130Z,41.30
2023-05-12T03:54:13.209Z,45.22
2023-05-12T03:56:58.379Z,45.35
2023-05-12T03:59:43.446Z,45.97
2023-05-12T04:02:28.393Z,41.40
2023-05-12T04:05:13.737Z,40.97
2023-05-12T04:07:58.669Z,42.90
2023-05-12T04:10:43.634Z,43.03
2023-05-12T04:13:31.653Z,41.80
2023-05-12T04:16:16.555Z,43.80
2023-05-12T04:19:03.223Z,46.80
2023-05-12T04:21:48.402Z,43.00
2023-05-12T04:24:33.364Z,42.35
2023-05-12T04:27:18.711Z,41.70
2023-05-12T04:30:03.858Z,41.63
2023-05-12T04:32:49.116Z,41.78
2023-05-12T04:35:35.149Z,42.03
2023-05-12T04:38:20.150Z,41.63
2023-05-12T04:41:06.344Z,38.17
2023-05-12T04:46:39.608Z,37.35
2023-05-12T04:49:25.052Z,37.22
2023-05-12T04:52:09.862Z,36.70
2023-05-12T04:54:54.791Z,35.38
2023-05-12T04:57:41.390Z,39.03
2023-05-12T05:00:26.554Z,37.30
2023-05-12T05:03:12.027Z,38.40
2023-05-12T05:05:57.595Z,37.13
2023-05-12T05:08:42.950Z,31.27
2023-05-12T05:11:27.722Z,27.13
2023-05-12T05:14:13.273Z,29.00
2023-05-12T05:16:59.898Z,28.65
2023-05-12T05:19:54.721Z,29.67
2023-05-12T05:22:43.781Z,24.33
2023-05-12T05:25:29.194Z,23.60
2023-05-12T05:28:14.630Z,21.90
2023-05-12T05:30:59.603Z,20.23
2023-05-12T05:33:44.687Z,20.08
2023-05-12T05:36:31.542Z,20.52
2023-05-12T05:39:17.121Z,20.63
2023-05-12T05:42:02.341Z,18.30
2023-05-12T05:44:47.149Z,20.15
2023-05-12T05:47:32.404Z,15.68
2023-05-12T05:50:17.589Z,14.32
2023-05-12T05:53:02.530Z,15.88
2023-05-12T05:55:48.736Z,17.55
2023-05-12T05:58:34.013Z,15.68
2023-05-12T06:01:19.078Z,18.08
2023-05-12T06:04:04.158Z,13.98
2023-05-12T06:06:49.623Z,14.48
2023-05-12T06:09:34.626Z,15.85
2023-05-12T06:12:19.748Z,13.63
2023-05-12T06:15:05.720Z,16.10
2023-05-12T06:17:50.670Z,16.02
2023-05-12T06:20:35.907Z,19.63
2023-05-12T06:23:21.004Z,19.05
2023-05-12T06:26:07.764Z,15.20
2023-05-12T06:28:53.068Z,20.77
2023-05-12T06:31:38.396Z,16.40
2023-05-12T06:34:23.360Z,19.65
2023-05-12T06:37:08.572Z,20.85
2023-05-12T06:39:53.545Z,18.25
2023-05-12T06:42:38.456Z,18.52
2023-05-12T06:45:23.757Z,19.67
2023-05-12T06:48:09.593Z,19.80
2023-05-12T06:50:54.727Z,19.13
2023-05-12T06:53:42.695Z,22.55
2023-05-12T06:56:29.297Z,21.35
2023-05-12T06:59:14.386Z,22.33
2023-05-12T07:01:59.765Z,22.42
2023-05-12T07:04:45.079Z,18.88
2023-05-12T07:07:30.197Z,17.48
2023-05-12T07:10:15.293Z,18.15
2023-05-12T07:13:00.783Z,18.35
2023-05-12T07:15:45.719Z,13.43
2023-05-12T07:18:32.075Z,16.15
2023-05-12T07:21:17.370Z,21.02
2023-05-12T07:24:02.460Z,16.10
2023-05-12T07:26:48.105Z,15.63
2023-05-12T07:29:33.156Z,12.10
2023-05-12T07:32:18.150Z,14.85
2023-05-12T07:35:03.704Z,12.40
2023-05-12T07:37:48.607Z,12.65
2023-05-12T07:40:33.723Z,10.20
2023-05-12T07:43:19.057Z,9.95
2023-05-12T07:46:04.216Z,13.57
2023-05-12T07:48:50.634Z,11.25
2023-05-12T07:51:35.587Z,13.30
2023-05-12T07:54:20.937Z,11.02
2023-05-12T07:57:05.944Z,10.75
2023-05-12T07:59:50.972Z,11.65
2023-05-12T08:02:37.718Z,9.27
2023-05-12T08:05:23.140Z,10.18
2023-05-12T08:08:16.604Z,10.50
2023-05-12T08:11:02.114Z,8.10
2023-05-12T08:13:47.374Z,8.20
2023-05-12T08:16:32.252Z,9.65
2023-05-12T08:19:17.265Z,9.88
2023-05-12T08:22:02.823Z,8.18
2023-05-12T08:24:48.113Z,10.23
2023-05-12T08:27:33.270Z,10.00
2023-05-12T08:30:18.523Z,9.70
2023-05-12T08:33:04.416Z,12.80
2023-05-12T08:35:49.606Z,9.10
2023-05-12T08:38:35.003Z,6.22
2023-05-12T08:41:28.315Z,8.77
2023-05-12T08:44:15.788Z,7.63
2023-05-12T08:47:03.850Z,10.02
2023-05-12T08:50:03.342Z,7.85
2023-05-12T08:52:49.488Z,5.57
2023-05-12T08:55:35.152Z,10.25
2023-05-12T08:58:30.500Z,6.32
2023-05-12T09:01:23.220Z,9.82
2023-05-12T09:04:08.550Z,6.15
2023-05-12T09:06:55.608Z,6.68
2023-05-12T09:09:44.194Z,8.48
2023-05-12T09:12:34.011Z,7.65
2023-05-12T09:15:25.993Z,4.57
2023-05-12T09:18:11.263Z,3.63
2023-05-12T09:20:56.822Z,7.97
2023-05-12T09:23:55.725Z,6.38
2023-05-12T09:26:51.229Z,8.07
2023-05-12T09:29:45.168Z,6.28
2023-05-12T09:32:36.923Z,7.50
2023-05-12T09:35:22.335Z,5.75
2023-05-12T09:38:09.182Z,3.55
2023-05-12T09:40:54.728Z,6.00
2023-05-12T09:43:46.466Z,6.75
2023-05-12T09:46:31.800Z,9.13
2023-05-12T09:49:26.755Z,4.00
2023-05-12T09:52:12.027Z,5.55
2023-05-12T09:54:57.058Z,6.88
2023-05-12T09:57:43.992Z,5.40
2023-05-12T10:00:43.388Z,3.38
2023-05-12T10:03:35.478Z,5.28
2023-05-12T10:06:26.472Z,5.05
2023-05-12T10:09:19.536Z,4.10
2023-05-12T10:12:06.228Z,6.88
2023-05-12T10:14:51.687Z,10.00
2023-05-12T10:17:37.441Z,4.28
2023-05-12T10:20:23.227Z,5.03
2023-05-12T10:23:10.061Z,4.32
2023-05-12T10:26:01.925Z,3.85
2023-05-12T10:28:47.694Z,7.53
2023-05-12T10:31:35.996Z,7.22
2023-05-12T10:34:21.601Z,7.32
2023-05-12T10:37:09.973Z,6.82
2023-05-12T10:39:54.956Z,3.05
2023-05-12T10:42:42.530Z,4.97
2023-05-12T10:45:28.178Z,4.05
2023-05-12T10:48:15.578Z,6.22
2023-05-12T10:51:08.510Z,5.65
2023-05-12T10:53:57.341Z,4.63
2023-05-12T10:56:44.793Z,3.47
2023-05-12T10:59:30.824Z,2.13
2023-05-12T11:02:18.465Z,4.10
2023-05-12T11:05:10.539Z,4.53
2023-05-12T11:07:56.976Z,3.95
2023-05-12T11:10:42.749Z,4.30
2023-05-12T11:13:29.330Z,4.53
2023-05-12T11:16:14.548Z,4.93
2023-05-12T11:19:05.814Z,2.85
2023-05-12T11:21:51.204Z,2.75
2023-05-12T11:24:37.848Z,4.97
2023-05-12T11:27:24.069Z,4.05
2023-05-12T11:30:11.040Z,3.22
2023-05-12T11:33:03.482Z,2.50
2023-05-12T11:35:49.609Z,4.90
2023-05-12T11:38:35.005Z,4.47
2023-05-12T11:41:24.966Z,4.25
2023-05-12T11:44:30.574Z,5.85
2023-05-12T11:47:17.072Z,3.88
2023-05-12T11:50:03.428Z,3.17
2023-05-12T11:52:48.849Z,4.38
2023-05-12T11:55:34.158Z,4.32
2023-05-12T11:58:30.328Z,6.75
2023-05-12T12:01:15.768Z,2.55
2023-05-12T12:04:01.206Z,3.35
2023-05-12T12:06:46.385Z,2.80
2023-05-12T12:09:41.798Z,2.20
2023-05-12T12:12:27.040Z,3.55
2023-05-12T12:15:13.098Z,1.98
2023-05-12T12:17:58.270Z,2.20
2023-05-12T12:20:43.931Z,2.22
2023-05-12T12:23:33.349Z,5.18
2023-05-12T12:26:25.924Z,2.08
2023-05-12T12:29:11.463Z,3.80
2023-05-12T12:31:56.330Z,3.95
2023-05-12T12:34:41.417Z,3.88
2023-05-12T12:37:27.055Z,3.10
2023-05-12T12:40:13.204Z,3.38
2023-05-12T12:42:58.455Z,2.03
2023-05-12T12:45:43.413Z,4.30
2023-05-12T12:48:28.838Z,2.85
2023-05-12T12:51:14.308Z,3.15
2023-05-12T12:53:59.496Z,3.90
2023-05-12T12:56:44.685Z,3.35
2023-05-12T12:59:29.832Z,2.80
2023-05-12T13:02:15.064Z,3.80
2023-05-12T13:05:05.938Z,5.82
2023-05-12T13:07:52.216Z,4.95
2023-05-12T13:10:37.718Z,4.47
2023-05-12T13:13:24.473Z,7.88
2023-05-12T13:16:09.524Z,3.97
2023-05-12T13:18:54.531Z,5.68
2023-05-12T13:21:39.959Z,9.02
2023-05-12T13:24:25.316Z,2.45
2023-05-12T13:27:10.700Z,4.63
2023-05-12T13:29:55.646Z,4.68
2023-05-12T13:32:40.677Z,5.97
2023-05-12T13:35:26.020Z,4.88
2023-05-12T13:38:11.184Z,4.78
2023-05-12T13:40:56.379Z,8.90
2023-05-12T13:43:41.604Z,5.68
2023-05-12T13:46:26.673Z,6.60
2023-05-12T13:49:12.729Z,8.45
2023-05-12T13:51:58.045Z,5.22
2023-05-12T13:54:43.427Z,7.43
2023-05-12T13:57:28.727Z,6.50
2023-05-12T14:00:17.183Z,5.75
2023-05-12T14:03:02.784Z,6.95
2023-05-12T14:05:48.012Z,7.90
2023-05-12T14:08:33.021Z,5.63
2023-05-12T14:11:18.036Z,9.95
2023-05-12T14:14:04.252Z,6.72
2023-05-12T14:16:49.253Z,7.93
2023-05-12T14:19:35.662Z,8.32
2023-05-12T14:22:26.426Z,6.78
2023-05-12T14:25:12.058Z,8.85
2023-05-12T14:27:57.294Z,6.97
2023-05-12T14:30:43.387Z,9.52
2023-05-12T14:33:28.658Z,9.10
2023-05-12T14:36:13.902Z,10.15
2023-05-12T14:38:58.954Z,12.68
2023-05-12T14:41:44.103Z,9.88
2023-05-12T14:44:29.180Z,12.38
2023-05-12T14:47:14.381Z,9.63
2023-05-12T14:49:59.557Z,12.73
2023-05-12T14:52:44.928Z,12.85
2023-05-12T14:55:30.145Z,10.95
2023-05-12T14:58:17.565Z,12.70
2023-05-12T15:01:03.631Z,13.85
2023-05-12T15:03:49.617Z,13.80
2023-05-12T15:06:34.946Z,13.32
2023-05-12T15:09:20.231Z,18.73
2023-05-12T15:12:05.542Z,15.60
2023-05-12T15:14:50.787Z,14.48
2023-05-12T15:17:35.709Z,15.32
2023-05-12T15:20:21.000Z,19.00
2023-05-12T15:23:05.917Z,15.25
2023-05-12T15:25:51.458Z,15.73
2023-05-12T15:28:36.567Z,20.63
2023-05-12T15:31:21.554Z,17.08
2023-05-12T15:34:07.301Z,20.33
2023-05-12T15:36:52.509Z,16.92
2023-05-12T15:39:38.665Z,18.05
2023-05-12T15:42:30.087Z,16.95
2023-05-12T15:45:18.024Z,17.42
2023-05-12T15:48:04.307Z,20.80
2023-05-12T15:50:49.928Z,19.42
2023-05-12T15:53:35.454Z,19.30
2023-05-12T15:56:21.969Z,20.48
2023-05-12T15:59:07.400Z,18.58
2023-05-12T16:01:52.335Z,22.55
2023-05-12T16:04:37.697Z,20.08
2023-05-12T16:07:22.996Z,20.83
2023-05-12T16:10:09.504Z,17.95
2023-05-12T16:12:54.984Z,20.15
2023-05-12T16:15:40.507Z,16.08
2023-05-12T16:18:25.813Z,18.20
2023-05-12T16:21:12.714Z,19.92
2023-05-12T16:23:57.737Z,18.88
2023-05-12T16:26:42.715Z,19.25
2023-05-12T16:29:31.203Z,17.05
2023-05-12T16:32:17.388Z,20.45
2023-05-12T16:35:03.721Z,23.38
2023-05-12T16:37:49.148Z,19.42
2023-05-12T16:40:34.671Z,14.90
2023-05-12T16:43:19.813Z,22.63
2023-05-12T16:46:04.918Z,21.23
2023-05-12T16:48:50.656Z,18.38
2023-05-12T16:51:35.844Z,18.63
2023-05-12T16:54:20.921Z,19.88
2023-05-12T16:57:06.197Z,18.92
2023-05-12T16:59:51.982Z,20.52
2023-05-12T17:02:38.835Z,19.42
2023-05-12T17:05:24.628Z,19.02
2023-05-12T17:08:10.050Z,23.50
2023-05-12T17:10:55.553Z,15.77
2023-05-12T17:13:40.654Z,22.00
2023-05-12T17:16:25.815Z,22.70
2023-05-12T17:19:14.919Z,19.70
2023-05-12T17:22:01.169Z,20.58
2023-05-12T17:24:46.950Z,20.42
2023-05-12T17:27:31.971Z,24.90
2023-05-12T17:30:18.460Z,16.08
2023-05-12T17:33:03.548Z,23.55
2023-05-12T17:36:07.798Z,22.55
2023-05-12T17:38:54.760Z,19.75
2023-05-12T17:41:39.941Z,23.83
2023-05-12T17:44:24.871Z,23.10
2023-05-12T17:47:14.251Z,21.05
2023-05-12T17:49:59.439Z,20.15
2023-05-12T17:52:44.664Z,26.27
2023-05-12T17:55:29.754Z,20.65
2023-05-12T17:58:15.095Z,24.13
2023-05-12T18:01:00.548Z,20.45
2023-05-12T18:03:45.919Z,19.75
2023-05-12T18:06:32.552Z,24.80
2023-05-12T18:09:17.990Z,25.67
2023-05-12T18:12:03.038Z,19.70
2023-05-12T18:14:48.288Z,17.92
2023-05-12T18:17:33.353Z,22.67
2023-05-12T18:20:19.045Z,21.98
2023-05-12T18:23:03.992Z,25.05
2023-05-12T18:25:48.944Z,24.98
2023-05-12T18:28:33.863Z,22.65
2023-05-12T18:31:20.030Z,26.15
2023-05-12T18:34:05.125Z,22.73
2023-05-12T18:36:50.021Z,20.55
2023-05-12T18:39:34.878Z,26.08
2023-05-12T18:42:20.241Z,24.88
2023-05-12T18:45:05.937Z,25.25
2023-05-12T18:47:51.735Z,18.98
2023-05-12T18:50:37.177Z,21.60
2023-05-12T18:53:23.168Z,26.73
2023-05-12T18:56:08.295Z,26.52
2023-05-12T18:58:53.224Z,26.15
2023-05-12T19:01:38.183Z,24.50
2023-05-12T19:04:23.486Z,25.63
2023-05-12T19:07:09.987Z,25.45
2023-05-12T19:09:55.107Z,27.35
2023-05-12T19:12:40.187Z,24.25
2023-05-12T19:15:25.171Z,24.55
2023-05-12T19:18:10.759Z,25.00
2023-05-12T19:20:55.846Z,28.17
2023-05-12T19:23:41.277Z,35.35
2023-05-12T19:26:26.906Z,29.08
2023-05-12T19:29:14.096Z,29.60
2023-05-12T19:31:59.278Z,22.27
2023-05-12T19:34:44.525Z,27.80
2023-05-12T19:37:29.857Z,28.08
2023-05-12T19:40:15.063Z,23.73
2023-05-12T19:43:00.281Z,26.60
2023-05-12T19:45:45.808Z,28.08
2023-05-12T19:48:31.359Z,25.83
2023-05-12T19:51:16.492Z,29.10
2023-05-12T19:54:04.736Z,23.17
2023-05-12T19:56:49.660Z,25.98
2023-05-12T19:59:34.613Z,28.63
2023-05-12T20:02:19.548Z,21.70
2023-05-12T20:05:05.010Z,23.20
2023-05-12T20:07:50.918Z,27.70
2023-05-12T20:10:35.855Z,23.83
2023-05-12T20:13:21.317Z,20.05
2023-05-12T20:16:06.927Z,22.65
2023-05-12T20:18:52.194Z,20.88
2023-05-12T20:21:37.840Z,24.08
2023-05-12T20:24:23.129Z,21.67
2023-05-12T20:27:08.584Z,18.33
2023-05-12T20:29:53.542Z,21.58
2023-05-12T20:32:38.675Z,18.05
2023-05-12T20:35:24.095Z,24.73
2023-05-12T20:38:09.207Z,26.92
2023-05-12T20:40:54.470Z,27.90
2023-05-12T20:43:41.315Z,22.67
2023-05-12T20:46:28.082Z,25.80
2023-05-12T20:49:13.569Z,23.45
2023-05-12T20:51:59.046Z,21.80
2023-05-12T20:54:44.159Z,22.10
2023-05-12T20:57:29.328Z,23.00
2023-05-12T21:00:14.730Z,21.35
2023-05-12T21:03:00.174Z,21.25
2023-05-12T21:05:48.150Z,21.55
2023-05-12T21:08:33.452Z,21.10
2023-05-12T21:11:19.064Z,19.92
2023-05-12T21:14:04.952Z,21.23
2023-05-12T21:16:50.339Z,27.60
2023-05-12T21:19:36.982Z,21.30
2023-05-12T21:22:21.867Z,24.33
2023-05-12T21:25:07.390Z,22.23
2023-05-12T21:27:53.041Z,22.17
2023-05-12T21:30:38.248Z,22.73
2023-05-12T21:33:23.106Z,25.65
2023-05-12T21:36:08.380Z,21.80
2023-05-12T21:38:53.324Z,22.70
2023-05-12T21:41:39.196Z,21.58
2023-05-12T21:44:24.164Z,22.20
2023-05-12T21:47:09.499Z,21.38
2023-05-12T21:49:55.174Z,35.70
2023-05-12T21:52:40.478Z,25.73
2023-05-12T21:55:26.271Z,21.63
2023-05-12T21:58:11.583Z,23.02
2023-05-12T22:00:56.512Z,25.25
2023-05-12T22:03:41.745Z,23.00
2023-05-12T22:06:27.058Z,25.13
2023-05-12T22:09:12.310Z,27.00
2023-05-12T22:11:57.225Z,25.25
2023-05-12T22:14:42.835Z,26.48
2023-05-12T22:17:28.095Z,24.73
2023-05-12T22:20:13.482Z,29.30
2023-05-12T22:22:59.305Z,22.55
2023-05-12T22:25:44.335Z,25.17
2023-05-12T22:28:29.598Z,25.98
2023-05-12T22:31:14.676Z,28.73
2023-05-12T22:33:59.991Z,24.08
2023-05-12T22:36:45.669Z,25.88
2023-05-12T22:39:30.613Z,26.42
2023-05-12T22:42:15.968Z,26.38
2023-05-12T22:45:04.619Z,34.60
2023-05-12T22:47:49.614Z,27.58
2023-05-12T22:50:35.219Z,24.98
2023-05-12T22:53:20.293Z,29.08
2023-05-12T22:56:05.802Z,30.88
2023-05-12T22:58:50.874Z,30.77
2023-05-12T23:01:36.077Z,25.80
2023-05-12T23:04:21.148Z,28.45
2023-05-12T23:07:09.407Z,26.95
2023-05-12T23:09:54.426Z,28.50
2023-05-12T23:12:39.647Z,23.90
2023-05-12T23:15:24.973Z,23.95
2023-05-12T23:18:10.106Z,25.70
2023-05-12T23:20:55.226Z,21.15
2023-05-12T23:23:40.536Z,25.65
2023-05-12T23:26:25.836Z,23.35
2023-05-12T23:29:11.181Z,22.27
2023-05-12T23:31:58.682Z,21.95
2023-05-12T23:34:44.450Z,20.10
2023-05-12T23:37:29.590Z,26.38
2023-05-12T23:40:14.717Z,26.02
2023-05-12T23:42:59.792Z,19.15
2023-05-12T23:45:45.556Z,24.83
2023-05-12T23:48:30.656Z,18.08
2023-05-12T23:51:16.002Z,22.77
2023-05-12T23:54:00.981Z,23.98
2023-05-12T23:56:46.251Z,19.98
2023-05-12T23:59:31.358Z,22.83
